Data for 08/25/2015

Time Sea-Level Adjusted Pressure Absolute Pressure Temperature Relative Humidity Dew Point   
(mb) (inHg) (mb) (inHg) (C) (F) (%) (C) (F)
00:05 1021 30.15 850 25.1 16.7 62 36 1.5 34.7
00:10 1021 30.15 850 25.1 16.2 61.2 38 2 35.7
00:15 1021 30.15 850 25.1 15.7 60.3 41 2.5 36.6
00:20 1021 30.15 850 25.1 15.6 60.2 43 3.1 37.6
00:25 1021 30.15 850 25.1 15.6 60.1 39 1.8 35.2
00:30 1021 30.15 850 25.1 15.9 60.6 36 1 33.8
00:35 1021 30.15 850 25.1 16 60.7 39 2.1 35.7
00:40 1021 30.15 850 25.1 15.5 59.9 39 1.8 35.2
00:45 1021 30.15 850 25.1 15.2 59.3 39 1.5 34.7
00:50 1021 30.15 850 25.1 15.4 59.6 37 0.9 33.5
00:55 1021 30.15 850 25.1 15.8 60.4 35 0.6 33.2
01:00 1021 30.15 850 25.1 16.5 61.6 43 4.1 39.3
01:05 1021 30.15 850 25.1 17.1 62.8 32 0.2 32.3
01:10 1021 30.15 850 25.1 17.1 62.7 31 0.1 32.2
01:15 1021 30.15 850 25.1 17.1 62.7 32 0.3 32.5
01:20 1021 30.15 850 25.1 16.8 62.3 33 0.5 33
01:25 1021 30.15 850 25.1 16.5 61.7 33 0.2 32.4
01:30 1021 30.15 850 25.1 16.6 61.9 33 0.4 32.8
01:35 1021 30.15 850 25.1 16.4 61.6 39 2.6 36.8
01:40 1021 30.15 850 25.1 16.4 61.5 34 0.8 33.4
01:45 1021 30.15 850 25.1 16.3 61.3 35 0.8 33.4
01:50 1021 30.15 850 25.1 16.2 61.2 33 0 32
01:55 1021 30.15 850 25.1 16.5 61.6 32 0 32.1
02:00 1021 30.15 850 25.1 16.8 62.2 32 -0 32
02:05 1021 30.15 850 25.1 16.7 62.1 32 0.2 32.4
02:10 1021 30.15 851 25.13 16.5 61.7 33 0.3 32.6
02:15 1021 30.15 851 25.13 16.3 61.3 34 0.3 32.6
02:20 1021 30.15 851 25.13 16.5 61.7 33 0.3 32.6
02:25 1021 30.15 851 25.13 16.2 61.2 35 1 33.8
02:30 1022 30.18 851 25.13 16 60.8 33 -0.3 31.4
02:35 1022 30.18 851 25.13 16.7 62 31 -0.3 31.4
02:40 1022 30.18 851 25.13 16.7 62.1 31 -0.2 31.6
02:45 1022 30.18 851 25.13 16.6 61.9 33 0.2 32.4
02:50 1022 30.18 851 25.13 15.9 60.7 36 1.1 34
02:55 1022 30.18 851 25.13 15.2 59.3 37 0.6 33.1
03:00 1022 30.18 851 25.13 15.5 59.9 35 0.4 32.7
03:05 1022 30.18 851 25.13 15.5 59.9 35 0.3 32.6
03:10 1022 30.18 851 25.13 15.6 60.1 35 0.2 32.3
03:15 1022 30.18 851 25.13 15.3 59.6 36 0.5 33
03:20 1022 30.18 851 25.13 15 59.1 37 0.7 33.3
03:25 1022 30.18 851 25.13 14.7 58.5 39 1.2 34.1
03:30 1022 30.18 851 25.13 14.8 58.6 39 1.2 34.1
03:35 1022 30.18 851 25.13 14.9 58.9 37 0.4 32.8
03:40 1022 30.18 851 25.13 14.7 58.5 39 1.1 34
03:45 1022 30.18 851 25.13 14.3 57.8 39 0.5 32.8
03:50 1022 30.18 851 25.13 14.2 57.6 39 0.4 32.8
03:55 1022 30.18 851 25.13 14.4 57.9 39 0.9 33.5
04:00 1022 30.18 851 25.13 14.3 57.7 39 0.6 33.1
04:05 1022 30.18 851 25.13 14.4 57.8 39 0.6 33.1
04:10 1022 30.18 851 25.13 14.3 57.7 39 0.5 33
04:15 1022 30.18 851 25.13 14.6 58.3 37 0 32
04:20 1022 30.18 851 25.13 14.9 58.9 35 -0.2 31.7
04:25 1022 30.18 851 25.13 15.1 59.1 36 0.3 32.5
04:30 1022 30.18 851 25.13 14.8 58.6 37 0.3 32.6
04:35 1022 30.18 851 25.13 14.6 58.3 38 0.4 32.7
04:40 1022 30.18 851 25.13 14.5 58.1 37 0.2 32.4
04:45 1022 30.18 851 25.13 14.4 57.9 38 0.3 32.6
04:50 1022 30.18 851 25.13 14.3 57.8 38 0.3 32.5
04:55 1022 30.18 851 25.13 14.4 57.9 38 0.4 32.8
05:00 1022 30.18 851 25.13 14.2 57.6 38 0.2 32.3
05:05 1022 30.18 851 25.13 14.2 57.6 38 0.3 32.6
05:10 1022 30.18 851 25.13 14.1 57.4 39 0.3 32.5
05:15 1022 30.18 851 25.13 14.1 57.4 38 0.3 32.5
05:20 1022 30.18 851 25.13 14.2 57.5 38 0.1 32.1
05:25 1022 30.18 851 25.13 14.4 57.9 38 0.2 32.3
05:30 1022 30.18 851 25.13 14.4 57.9 38 0.3 32.6
05:35 1022 30.18 851 25.13 14.2 57.5 39 0.5 32.9
05:40 1022 30.18 851 25.13 14.1 57.4 38 0.2 32.4
05:45 1022 30.18 851 25.13 14.3 57.7 37 -0 32
05:50 1022 30.18 851 25.13 14.5 58.1 37 0 32.1
05:55 1022 30.18 851 25.13 14.6 58.2 36 -0.1 31.8
06:00 1022 30.18 852 25.16 14.8 58.6 35 -0.3 31.5
06:05 1022 30.18 852 25.16 15 59 34 -0.4 31.2
06:10 1023 30.21 852 25.16 15.2 59.3 34 -0.4 31.3
06:15 1023 30.21 852 25.16 15.4 59.7 34 -0.4 31.3
06:20 1023 30.21 852 25.16 15.7 60.2 33 -0.3 31.5
06:25 1023 30.21 852 25.16 15.6 60 35 0.4 32.7
06:30 1023 30.21 852 25.16 15.7 60.2 33 -0.4 31.2
06:35 1023 30.21 852 25.16 15.8 60.4 33 -0.1 31.8
06:40 1023 30.21 852 25.16 15.7 60.2 34 0.1 32.2
06:45 1023 30.21 852 25.16 15.6 60 35 0.2 32.3
06:50 1023 30.21 852 25.16 15.6 60.1 35 0.5 32.9
06:55 1023 30.21 853 25.19 15.7 60.3 34 0.1 32.2
07:00 1023 30.21 853 25.19 15.7 60.3 34 0.1 32.1
07:05 1023 30.21 853 25.19 15.7 60.3 36 0.6 33.1
07:10 1023 30.21 853 25.19 15.7 60.2 36 0.8 33.5
07:15 1023 30.21 853 25.19 15.6 60.1 35 0.3 32.5
07:20 1023 30.21 853 25.19 16.1 60.9 35 0.6 33.1
07:25 1023 30.21 853 25.19 16.4 61.5 34 0.7 33.2
07:30 1023 30.21 853 25.19 16.3 61.3 35 0.7 33.3
07:35 1023 30.21 853 25.19 16.6 61.9 36 1.7 35
07:40 1023 30.21 853 25.19 17.1 62.7 35 1.5 34.7
07:45 1023 30.21 853 25.19 17.2 62.9 36 2 35.6
07:50 1024 30.24 853 25.19 17.5 63.5 38 3.1 37.6
07:55 1023 30.21 853 25.19 17.6 63.6 40 3.8 38.9
08:00 1023 30.21 853 25.19 17.3 63.2 38 3 37.3
08:05 1024 30.24 853 25.19 17.2 62.9 38 2.8 37.1
08:10 1024 30.24 853 25.19 17.2 62.9 37 2.4 36.3
08:15 1024 30.24 853 25.19 17.5 63.4 35 2 35.5
08:20 1024 30.24 853 25.19 18 64.4 33 1.7 35.1
08:25 1024 30.24 853 25.19 18.6 65.4 34 2.4 36.4
08:30 1024 30.24 853 25.19 19.1 66.5 38 4.6 40.3
08:35 1024 30.24 853 25.19 19.7 67.4 37 4.6 40.2
08:40 1024 30.24 853 25.19 20.3 68.5 38 5.6 42.1
08:45 1023 30.21 853 25.19 20.2 68.3 38 5.5 41.8
08:50 1023 30.21 853 25.19 20.7 69.2 38 6.1 43.1
08:55 1023 30.21 853 25.19 21.6 70.9 38 6.7 44.1
09:00 1023 30.21 852 25.16 21.9 71.5 34 5.5 41.8
09:05 1023 30.21 852 25.16 22 71.7 35 5.9 42.6
09:10 1023 30.21 852 25.16 22.3 72.2 30 4.2 39.6
09:15 1023 30.21 852 25.16 22.5 72.5 27 2.6 36.6
09:20 1023 30.21 852 25.16 23.1 73.6 25 2 35.5
09:25 1023 30.21 852 25.16 23.8 74.8 23 1.7 35.1
09:30 1023 30.21 852 25.16 23.9 74.9 25 2.6 36.8
09:35 1023 30.21 852 25.16 24.3 75.7 25 3.2 37.7
09:40 1023 30.21 852 25.16 24.6 76.2 25 3.7 38.7
09:45 1023 30.21 852 25.16 24.5 76.1 24 3.1 37.5
09:50 1023 30.21 852 25.16 23.3 73.9 24 1.8 35.2
09:55 1023 30.21 852 25.16 23 73.5 25 2.2 36
10:00 1023 30.21 852 25.16 23.2 73.8 26 2.6 36.7
10:05 1023 30.21 852 25.16 23.4 74.2 26 3.1 37.6
10:10 1023 30.21 852 25.16 23.9 75.1 25 2.7 36.9
10:15 1023 30.21 852 25.16 23.7 74.7 25 2.6 36.7
10:20 1023 30.21 852 25.16 23.9 74.9 24 2.5 36.5
10:25 1023 30.21 852 25.16 24.1 75.3 26 3.7 38.6
10:30 1023 30.21 852 25.16 24.1 75.5 24 2.5 36.5
10:35 1023 30.21 852 25.16 24 75.3 25 2.9 37.3
10:40 1023 30.21 852 25.16 24 75.1 24 2.5 36.6
10:45 1023 30.21 852 25.16 24.2 75.6 24 2.9 37.2
10:50 1023 30.21 852 25.16 24.7 76.5 27 4.5 40.1
10:55 1023 30.21 852 25.16 24.7 76.4 25 3.6 38.6
11:00 1023 30.21 852 25.16 24.6 76.2 25 3.6 38.5
11:05 1023 30.21 852 25.16 24.1 75.4 27 4.4 39.9
11:10 1023 30.21 852 25.16 23.6 74.5 31 5.6 42.2
11:15 1023 30.21 852 25.16 23.1 73.6 26 3 37.4
11:20 1023 30.21 852 25.16 23.3 73.9 27 3.4 38.1
11:25 1023 30.21 852 25.16 23.5 74.2 28 3.9 39
11:30 1023 30.21 852 25.16 24 75.1 29 4.9 40.9
11:35 1023 30.21 852 25.16 23.8 74.8 26 3.1 37.6
11:40 1023 30.21 852 25.16 24.1 75.3 26 3.6 38.5
11:45 1023 30.21 852 25.16 24.7 76.4 27 4.7 40.5
11:50 1023 30.21 852 25.16 24.2 75.5 26 3.7 38.7
11:55 1023 30.21 852 25.16 24.2 75.6 28 4.9 40.8
12:00 1023 30.21 852 25.16 24.3 75.8 27 4.4 40
12:05 1023 30.21 852 25.16 24.3 75.7 26 3.8 38.8
12:10 1022 30.18 852 25.16 24.6 76.2 27 4.5 40.1
12:15 1022 30.18 851 25.13 24.9 76.9 27 4.9 40.9
12:20 1022 30.18 851 25.13 24.8 76.7 28 5.2 41.3
12:25 1022 30.18 851 25.13 24.8 76.6 27 4.8 40.7
12:30 1022 30.18 851 25.13 25.6 78.2 26 4.7 40.5
12:35 1022 30.18 851 25.13 27 80.6 23 4.3 39.7
12:40 1022 30.18 851 25.13 26.7 80.1 25 5.4 41.8
12:45 1022 30.18 851 25.13 26.8 80.2 25 5.4 41.7
12:50 1022 30.18 851 25.13 27.7 81.8 22 4.2 39.6
12:55 1022 30.18 851 25.13 28.8 83.8 19 3.2 37.7
13:00 1022 30.18 851 25.13 30.3 86.6 17 3.3 37.9
13:05 1022 30.18 851 25.13 30.9 87.6 17 3 37.3
13:10 1022 30.18 851 25.13 30.9 87.7 14 1 33.7
13:15 1022 30.18 851 25.13 31.2 88.1 13 -0.2 31.7
13:20 1022 30.18 851 25.13 32.3 90.1 12 -0.5 31
13:25 1021 30.15 851 25.13 32.4 90.2 12 0 32
13:30 1021 30.15 851 25.13 32.3 90.2 14 1.4 34.5
13:35 1021 30.15 851 25.13 32.8 91 11 -1.4 29.6
13:40 1021 30.15 851 25.13 32.3 90.1 12 -0.6 30.9
13:45 1021 30.15 850 25.1 33 91.4 13 1.2 34.1
13:50 1021 30.15 850 25.1 31.8 89.2 13 0.5 32.8
13:55 1021 30.15 850 25.1 32.2 90 12 -0.4 31.2
14:00 1021 30.15 850 25.1 32.8 91.1 12 0.5 32.9
14:05 1021 30.15 850 25.1 32.5 90.4 13 1.1 34
14:10 1021 30.15 850 25.1 32.9 91.2 13 0.8 33.4
14:15 1021 30.15 850 25.1 32.4 90.3 12 -0.2 31.7
14:20 1021 30.15 850 25.1 32.2 89.9 12 -0.9 30.4
14:25 1021 30.15 850 25.1 32.1 89.7 11 -1.7 28.9
14:30 1021 30.15 850 25.1 31.7 89.1 11 -1.6 29.1
14:35 1021 30.15 850 25.1 31.7 89.1 12 -1.1 30.1
14:40 1021 30.15 850 25.1 31.6 88.9 12 -1.4 29.4
14:45 1020 30.12 850 25.1 31.9 89.4 11 -1.5 29.2
14:50 1020 30.12 849 25.07 32.5 90.5 12 -0.3 31.5
14:55 1020 30.12 849 25.07 33.1 91.5 11 -0.5 31.2
15:00 1020 30.12 849 25.07 33.3 92 11 -1.1 30
15:05 1020 30.12 849 25.07 33.2 91.8 11 -0.5 31.1
15:10 1020 30.12 849 25.07 34 93.2 10 -0.8 30.5
15:15 1020 30.12 849 25.07 34 93.1 11 -0.6 31
15:20 1020 30.12 849 25.07 33.3 92 11 -0.4 31.3
15:25 1020 30.12 849 25.07 32.9 91.1 11 -1.1 29.9
15:30 1020 30.12 849 25.07 33.4 92 11 -1.1 30.1
15:35 1020 30.12 849 25.07 33.2 91.8 11 -0.8 30.5
15:40 1020 30.12 849 25.07 32.3 90.2 11 -2 28.4
15:45 1020 30.12 849 25.07 32.4 90.4 12 -0.2 31.6
15:50 1020 30.12 849 25.07 32.3 90.1 12 -0 32
15:55 1020 30.12 849 25.07 32.2 89.9 12 -0.3 31.5
16:00 1020 30.12 849 25.07 31.3 88.4 13 -0.3 31.4
16:05 1020 30.12 849 25.07 31.1 88 13 0 32
16:10 1020 30.12 849 25.07 30.8 87.5 13 -0.3 31.5
16:15 1020 30.12 849 25.07 30.6 87.1 13 -0.3 31.5
16:20 1020 30.12 849 25.07 30.5 86.9 13 -0.2 31.6
16:25 1020 30.12 849 25.07 30.4 86.7 13 -0.3 31.4
16:30 1020 30.12 849 25.07 30.1 86.2 14 0.3 32.6
16:35 1020 30.12 849 25.07 30 85.9 13 -0.8 30.6
16:40 1020 30.12 849 25.07 29.6 85.3 15 0.4 32.7
16:45 1021 30.15 850 25.1 29.5 85.1 13 -1.2 29.9
16:50 1020 30.12 849 25.07 29.4 84.9 14 -0.3 31.4
16:55 1020 30.12 849 25.07 29.3 84.7 14 -0.9 30.4
17:00 1020 30.12 849 25.07 29.2 84.5 14 -0.7 30.7
17:05 1020 30.12 849 25.07 29.1 84.3 15 -0.2 31.6
17:10 1020 30.12 849 25.07 28.8 83.8 15 -0.1 31.9
17:15 1020 30.12 849 25.07 28.7 83.7 17 1.9 35.5
17:20 1020 30.12 849 25.07 28.5 83.2 18 1.8 35.3
17:25 1020 30.12 849 25.07 28.1 82.5 18 1.6 34.9
17:30 1020 30.12 849 25.07 28 82.4 16 0.5 33
17:35 1020 30.12 849 25.07 28 82.5 17 1.2 34.2
17:40 1020 30.12 849 25.07 27.9 82.2 18 1.3 34.4
17:45 1020 30.12 849 25.07 27.8 82 18 1.8 35.3
17:50 1020 30.12 849 25.07 27.5 81.5 19 2.2 35.9
17:55 1020 30.12 849 25.07 27.3 81.2 21 3.7 38.7
18:00 1020 30.12 849 25.07 27.1 80.8 22 3.7 38.6
18:05 1020 30.12 849 25.07 26.7 80 23 4.3 39.7
18:10 1020 30.12 849 25.07 26.3 79.3 24 4.6 40.2
18:15 1020 30.12 849 25.07 26 78.8 25 4.9 40.8
18:20 1020 30.12 849 25.07 25.8 78.5 26 5.4 41.7
18:25 1020 30.12 849 25.07 25.8 78.4 26 5.3 41.5
18:30 1020 30.12 849 25.07 25.7 78.3 25 4.5 40.1
18:35 1020 30.12 849 25.07 25.6 78.1 26 4.9 40.8
18:40 1020 30.12 849 25.07 25.4 77.7 26 5 41
18:45 1020 30.12 849 25.07 25.3 77.5 26 4.9 40.8
18:50 1020 30.12 849 25.07 25.2 77.4 28 5.7 42.3
18:55 1020 30.12 849 25.07 25.3 77.5 27 5.2 41.4
19:00 1020 30.12 849 25.07 24.9 76.8 24 2.9 37.2
19:05 1020 30.12 849 25.07 25 77 28 5.5 41.9
19:10 1020 30.12 849 25.07 24.7 76.4 27 4.7 40.4
19:15 1020 30.12 849 25.07 24.3 75.8 28 4.7 40.4
19:20 1020 30.12 849 25.07 24.1 75.4 27 4.3 39.8
19:25 1020 30.12 849 25.07 23.9 75.1 28 4.4 40
19:30 1020 30.12 849 25.07 23.8 74.8 28 4.5 40
19:35 1020 30.12 849 25.07 23.7 74.6 28 4.5 40.1
19:40 1020 30.12 849 25.07 23.5 74.4 27 3.9 39
19:45 1020 30.12 849 25.07 24 75.2 25 3 37.4
19:50 1020 30.12 849 25.07 24.4 76 24 2.8 37.1
19:55 1020 30.12 849 25.07 24.3 75.7 27 4.1 39.4
20:00 1020 30.12 849 25.07 24.2 75.5 25 2.9 37.2
20:05 1020 30.12 849 25.07 24.5 76.1 23 2.3 36.1
20:10 1020 30.12 849 25.07 24.8 76.7 22 2.2 35.9
20:15 1020 30.12 849 25.07 25.2 77.4 21 1.6 34.8
20:20 1020 30.12 849 25.07 25.7 78.2 20 1.4 34.6
20:25 1020 30.12 849 25.07 25.9 78.5 20 1.6 34.8
20:30 1020 30.12 849 25.07 25.9 78.5 20 1.4 34.6
20:35 1020 30.12 849 25.07 25.9 78.5 20 1.5 34.7
20:40 1020 30.12 849 25.07 25.8 78.4 20 1.6 35
20:45 1020 30.12 849 25.07 25.6 78.2 20 1.6 34.8
20:50 1020 30.12 849 25.07 25.5 77.8 20 1.5 34.6
20:55 1020 30.12 849 25.07 25.3 77.5 21 1.6 34.9
21:00 1020 30.12 849 25.07 25.1 77.1 21 1.6 35
21:05 1020 30.12 849 25.07 25 77 21 1.4 34.5
21:10 1020 30.12 849 25.07 25.1 77.1 20 1.1 34
21:15 1020 30.12 849 25.07 25.2 77.3 20 1.2 34.1
21:20 1020 30.12 849 25.07 25.3 77.6 20 1.1 34
21:25 1020 30.12 849 25.07 25.3 77.5 20 1 33.8
21:30 1020 30.12 849 25.07 25.2 77.4 20 0.9 33.7
21:35 1020 30.12 849 25.07 25.3 77.5 20 1 33.8
21:40 1020 30.12 849 25.07 25.4 77.7 20 1 33.7
21:45 1020 30.12 849 25.07 25.4 77.7 20 0.9 33.7
21:50 1020 30.12 849 25.07 25.4 77.7 20 1.1 33.9
21:55 1020 30.12 849 25.07 25.3 77.5 20 1 33.8
22:00 1020 30.12 849 25.07 25.3 77.5 20 1 33.8
22:05 1020 30.12 849 25.07 25.1 77.2 21 1.2 34.2
22:10 1020 30.12 849 25.07 24.9 76.7 21 1.5 34.6
22:15 1020 30.12 849 25.07 24.7 76.4 21 1.3 34.3
22:20 1020 30.12 849 25.07 24.7 76.4 21 1 33.8
22:25 1020 30.12 849 25.07 24.8 76.7 21 1 33.7
22:30 1020 30.12 849 25.07 24.9 76.8 21 1.1 33.9
22:35 1020 30.12 849 25.07 24.7 76.4 22 1.5 34.7
22:40 1020 30.12 849 25.07 23.9 74.9 23 1.8 35.3
22:45 1020 30.12 849 25.07 23.6 74.5 23 1.2 34.2
22:50 1020 30.12 849 25.07 23.6 74.5 24 2 35.6
22:55 1020 30.12 849 25.07 23.2 73.8 24 1.8 35.2
23:00 1020 30.12 849 25.07 23.1 73.6 24 1.8 35.3
23:05 1020 30.12 849 25.07 22.9 73.1 26 2.4 36.3
23:10 1020 30.12 849 25.07 22.6 72.6 27 2.6 36.7
23:15 1020 30.12 849 25.07 22.2 72 26 1.8 35.3
23:20 1020 30.12 849 25.07 22.5 72.4 24 1.3 34.4
23:25 1020 30.12 849 25.07 22.8 73.1 24 1.3 34.4
23:30 1020 30.12 849 25.07 22.9 73.1 24 1.7 35
23:35 1020 30.12 849 25.07 22.6 72.7 25 1.8 35.3
23:40 1020 30.12 849 25.07 22.1 71.8 26 1.9 35.5
23:45 1020 30.12 849 25.07 22 71.5 26 1.8 35.3
23:50 1020 30.12 849 25.07 22.1 71.8 25 1.6 34.9
23:55 1020 30.12 849 25.07 22.2 72 25 1.7 35.1
24:00 1020 30.12 849 25.07 22.3 72.1 25 1.7 35.1